sensor_id;sensor_type;location;lat;lon;timestamp;P1;durP1;ratioP1;P2;durP2;ratioP2
15645;SDS011;7922;43.622;1.476;2023-05-29T00:00:27;7.47;;;4.87;;
15645;SDS011;7922;43.622;1.476;2023-05-29T00:02:52;8.73;;;4.83;;
15645;SDS011;7922;43.622;1.476;2023-05-29T00:05:17;7.77;;;4.60;;
15645;SDS011;7922;43.622;1.476;2023-05-29T00:07:43;9.00;;;5.03;;
15645;SDS011;7922;43.622;1.476;2023-05-29T00:10:09;10.63;;;5.00;;
15645;SDS011;7922;43.622;1.476;2023-05-29T00:12:36;9.40;;;4.87;;
15645;SDS011;7922;43.622;1.476;2023-05-29T00:15:02;8.60;;;5.07;;
15645;SDS011;7922;43.622;1.476;2023-05-29T00:17:28;6.40;;;4.43;;
15645;SDS011;7922;43.622;1.476;2023-05-29T00:19:53;8.70;;;4.83;;
15645;SDS011;7922;43.622;1.476;2023-05-29T00:22:19;8.67;;;4.60;;
15645;SDS011;7922;43.622;1.476;2023-05-29T00:24:44;9.17;;;5.00;;
15645;SDS011;7922;43.622;1.476;2023-05-29T00:27:09;7.63;;;5.17;;
15645;SDS011;7922;43.622;1.476;2023-05-29T00:29:35;9.57;;;4.93;;
15645;SDS011;7922;43.622;1.476;2023-05-29T00:32:01;8.03;;;5.00;;
15645;SDS011;7922;43.622;1.476;2023-05-29T00:34:27;7.60;;;4.87;;
15645;SDS011;7922;43.622;1.476;2023-05-29T00:36:52;7.07;;;5.10;;
15645;SDS011;7922;43.622;1.476;2023-05-29T00:39:17;7.57;;;5.00;;
15645;SDS011;7922;43.622;1.476;2023-05-29T00:41:43;8.60;;;4.57;;
15645;SDS011;7922;43.622;1.476;2023-05-29T00:44:08;8.23;;;4.50;;
15645;SDS011;7922;43.622;1.476;2023-05-29T00:46:34;11.20;;;5.70;;
15645;SDS011;7922;43.622;1.476;2023-05-29T00:49:00;6.30;;;4.50;;
15645;SDS011;7922;43.622;1.476;2023-05-29T00:51:26;6.80;;;4.10;;
15645;SDS011;7922;43.622;1.476;2023-05-29T00:53:53;7.13;;;4.43;;
15645;SDS011;7922;43.622;1.476;2023-05-29T00:56:19;8.60;;;4.63;;
15645;SDS011;7922;43.622;1.476;2023-05-29T00:58:45;5.77;;;4.40;;
15645;SDS011;7922;43.622;1.476;2023-05-29T01:01:12;4.67;;;3.97;;
15645;SDS011;7922;43.622;1.476;2023-05-29T01:03:37;8.67;;;4.17;;
15645;SDS011;7922;43.622;1.476;2023-05-29T01:06:03;7.70;;;4.50;;
15645;SDS011;7922;43.622;1.476;2023-05-29T01:08:28;7.53;;;4.50;;
15645;SDS011;7922;43.622;1.476;2023-05-29T01:10:55;7.33;;;5.40;;
15645;SDS011;7922;43.622;1.476;2023-05-29T01:13:26;7.03;;;4.83;;
15645;SDS011;7922;43.622;1.476;2023-05-29T01:15:58;8.47;;;4.93;;
15645;SDS011;7922;43.622;1.476;2023-05-29T01:21:39;12.27;;;5.03;;
15645;SDS011;7922;43.622;1.476;2023-05-29T01:29:26;5.63;;;3.73;;
15645;SDS011;7922;43.622;1.476;2023-05-29T01:31:53;9.60;;;5.00;;
15645;SDS011;7922;43.622;1.476;2023-05-29T01:34:19;10.70;;;4.70;;
15645;SDS011;7922;43.622;1.476;2023-05-29T01:36:45;10.13;;;5.07;;
15645;SDS011;7922;43.622;1.476;2023-05-29T01:39:10;7.83;;;5.47;;
15645;SDS011;7922;43.622;1.476;2023-05-29T01:41:36;7.57;;;5.20;;
15645;SDS011;7922;43.622;1.476;2023-05-29T01:44:03;7.87;;;5.30;;
15645;SDS011;7922;43.622;1.476;2023-05-29T01:46:31;12.77;;;5.20;;
15645;SDS011;7922;43.622;1.476;2023-05-29T01:48:56;9.47;;;5.53;;
15645;SDS011;7922;43.622;1.476;2023-05-29T01:51:22;9.43;;;4.83;;
15645;SDS011;7922;43.622;1.476;2023-05-29T01:53:47;7.80;;;4.83;;
15645;SDS011;7922;43.622;1.476;2023-05-29T01:56:13;9.13;;;5.20;;
15645;SDS011;7922;43.622;1.476;2023-05-29T01:58:39;12.00;;;5.33;;
15645;SDS011;7922;43.622;1.476;2023-05-29T02:01:06;12.07;;;6.43;;
15645;SDS011;7922;43.622;1.476;2023-05-29T02:03:32;11.40;;;6.07;;
15645;SDS011;7922;43.622;1.476;2023-05-29T02:05:58;7.80;;;5.20;;
15645;SDS011;7922;43.622;1.476;2023-05-29T02:08:24;9.90;;;5.37;;
15645;SDS011;7922;43.622;1.476;2023-05-29T02:10:49;7.83;;;5.10;;
15645;SDS011;7922;43.622;1.476;2023-05-29T02:13:14;10.03;;;5.50;;
15645;SDS011;7922;43.622;1.476;2023-05-29T02:15:39;8.17;;;5.83;;
15645;SDS011;7922;43.622;1.476;2023-05-29T02:18:05;10.37;;;5.83;;
15645;SDS011;7922;43.622;1.476;2023-05-29T02:20:30;7.47;;;5.50;;
15645;SDS011;7922;43.622;1.476;2023-05-29T02:22:55;7.97;;;5.57;;
15645;SDS011;7922;43.622;1.476;2023-05-29T02:25:21;10.10;;;7.03;;
15645;SDS011;7922;43.622;1.476;2023-05-29T02:27:46;7.07;;;6.00;;
15645;SDS011;7922;43.622;1.476;2023-05-29T02:30:11;8.00;;;5.53;;
15645;SDS011;7922;43.622;1.476;2023-05-29T02:32:36;9.63;;;5.47;;
15645;SDS011;7922;43.622;1.476;2023-05-29T02:35:02;8.50;;;5.60;;
15645;SDS011;7922;43.622;1.476;2023-05-29T02:37:28;11.03;;;5.93;;
15645;SDS011;7922;43.622;1.476;2023-05-29T02:39:53;7.40;;;5.63;;
15645;SDS011;7922;43.622;1.476;2023-05-29T02:42:18;8.80;;;5.63;;
15645;SDS011;7922;43.622;1.476;2023-05-29T02:44:44;9.30;;;5.83;;
15645;SDS011;7922;43.622;1.476;2023-05-29T02:47:09;10.93;;;5.90;;
15645;SDS011;7922;43.622;1.476;2023-05-29T02:49:34;9.63;;;5.50;;
15645;SDS011;7922;43.622;1.476;2023-05-29T02:51:59;8.20;;;5.50;;
15645;SDS011;7922;43.622;1.476;2023-05-29T02:54:25;7.93;;;5.97;;
15645;SDS011;7922;43.622;1.476;2023-05-29T02:56:51;8.50;;;6.17;;
15645;SDS011;7922;43.622;1.476;2023-05-29T02:59:16;11.73;;;6.27;;
15645;SDS011;7922;43.622;1.476;2023-05-29T03:01:42;10.07;;;5.60;;
15645;SDS011;7922;43.622;1.476;2023-05-29T03:04:07;9.07;;;6.37;;
15645;SDS011;7922;43.622;1.476;2023-05-29T03:06:33;10.80;;;5.80;;
15645;SDS011;7922;43.622;1.476;2023-05-29T03:08:58;12.00;;;6.13;;
15645;SDS011;7922;43.622;1.476;2023-05-29T03:11:23;7.40;;;5.60;;
15645;SDS011;7922;43.622;1.476;2023-05-29T03:13:49;12.27;;;5.60;;
15645;SDS011;7922;43.622;1.476;2023-05-29T03:16:14;9.13;;;5.57;;
15645;SDS011;7922;43.622;1.476;2023-05-29T03:18:39;10.50;;;6.00;;
15645;SDS011;7922;43.622;1.476;2023-05-29T03:21:05;9.37;;;5.80;;
15645;SDS011;7922;43.622;1.476;2023-05-29T03:23:30;11.87;;;6.53;;
15645;SDS011;7922;43.622;1.476;2023-05-29T03:25:55;9.60;;;6.13;;
15645;SDS011;7922;43.622;1.476;2023-05-29T03:28:20;13.17;;;5.87;;
15645;SDS011;7922;43.622;1.476;2023-05-29T03:30:46;10.80;;;6.30;;
15645;SDS011;7922;43.622;1.476;2023-05-29T03:33:11;9.53;;;5.63;;
15645;SDS011;7922;43.622;1.476;2023-05-29T03:35:36;9.07;;;5.83;;
15645;SDS011;7922;43.622;1.476;2023-05-29T03:38:02;8.13;;;5.77;;
15645;SDS011;7922;43.622;1.476;2023-05-29T03:40:27;10.13;;;6.03;;
15645;SDS011;7922;43.622;1.476;2023-05-29T03:42:52;9.33;;;6.33;;
15645;SDS011;7922;43.622;1.476;2023-05-29T03:45:17;7.50;;;5.47;;
15645;SDS011;7922;43.622;1.476;2023-05-29T03:47:43;8.80;;;5.47;;
15645;SDS011;7922;43.622;1.476;2023-05-29T03:50:08;8.17;;;5.83;;
15645;SDS011;7922;43.622;1.476;2023-05-29T03:52:34;8.33;;;5.73;;
15645;SDS011;7922;43.622;1.476;2023-05-29T03:54:59;7.87;;;6.30;;
15645;SDS011;7922;43.622;1.476;2023-05-29T03:57:24;10.90;;;5.97;;
15645;SDS011;7922;43.622;1.476;2023-05-29T03:59:49;9.90;;;6.23;;
15645;SDS011;7922;43.622;1.476;2023-05-29T04:02:15;8.37;;;6.10;;
15645;SDS011;7922;43.622;1.476;2023-05-29T04:04:40;8.83;;;5.77;;
15645;SDS011;7922;43.622;1.476;2023-05-29T04:07:05;9.73;;;5.70;;
15645;SDS011;7922;43.622;1.476;2023-05-29T04:09:31;9.00;;;5.97;;
15645;SDS011;7922;43.622;1.476;2023-05-29T04:11:56;10.27;;;5.80;;
15645;SDS011;7922;43.622;1.476;2023-05-29T04:14:21;13.30;;;6.47;;
15645;SDS011;7922;43.622;1.476;2023-05-29T04:16:46;10.90;;;5.67;;
15645;SDS011;7922;43.622;1.476;2023-05-29T04:19:12;12.03;;;6.30;;
15645;SDS011;7922;43.622;1.476;2023-05-29T04:21:37;9.90;;;5.70;;
15645;SDS011;7922;43.622;1.476;2023-05-29T04:24:02;8.23;;;6.37;;
15645;SDS011;7922;43.622;1.476;2023-05-29T04:26:28;10.03;;;6.20;;
15645;SDS011;7922;43.622;1.476;2023-05-29T04:28:53;11.43;;;6.30;;
15645;SDS011;7922;43.622;1.476;2023-05-29T04:31:18;9.43;;;6.10;;
15645;SDS011;7922;43.622;1.476;2023-05-29T04:33:44;9.33;;;5.53;;
15645;SDS011;7922;43.622;1.476;2023-05-29T04:36:09;9.17;;;5.83;;
15645;SDS011;7922;43.622;1.476;2023-05-29T04:38:34;7.93;;;6.00;;
15645;SDS011;7922;43.622;1.476;2023-05-29T04:40:59;8.20;;;5.70;;
15645;SDS011;7922;43.622;1.476;2023-05-29T04:43:25;7.63;;;5.83;;
15645;SDS011;7922;43.622;1.476;2023-05-29T04:45:50;9.70;;;6.50;;
15645;SDS011;7922;43.622;1.476;2023-05-29T04:48:16;10.17;;;5.97;;
15645;SDS011;7922;43.622;1.476;2023-05-29T04:50:41;12.67;;;6.30;;
15645;SDS011;7922;43.622;1.476;2023-05-29T04:53:06;10.23;;;6.00;;
15645;SDS011;7922;43.622;1.476;2023-05-29T04:55:31;8.37;;;5.70;;
15645;SDS011;7922;43.622;1.476;2023-05-29T04:57:57;8.40;;;5.60;;
15645;SDS011;7922;43.622;1.476;2023-05-29T05:00:22;11.00;;;6.10;;
15645;SDS011;7922;43.622;1.476;2023-05-29T05:02:49;10.83;;;5.97;;
15645;SDS011;7922;43.622;1.476;2023-05-29T05:05:14;8.63;;;6.17;;
15645;SDS011;7922;43.622;1.476;2023-05-29T05:07:39;7.60;;;6.30;;
15645;SDS011;7922;43.622;1.476;2023-05-29T05:10:05;9.67;;;5.67;;
15645;SDS011;7922;43.622;1.476;2023-05-29T05:12:31;11.20;;;6.23;;
15645;SDS011;7922;43.622;1.476;2023-05-29T05:14:56;9.73;;;6.33;;
15645;SDS011;7922;43.622;1.476;2023-05-29T05:17:21;12.47;;;5.87;;
15645;SDS011;7922;43.622;1.476;2023-05-29T05:19:47;10.37;;;6.77;;
15645;SDS011;7922;43.622;1.476;2023-05-29T05:22:12;9.87;;;6.13;;
15645;SDS011;7922;43.622;1.476;2023-05-29T05:24:37;8.37;;;5.80;;
15645;SDS011;7922;43.622;1.476;2023-05-29T05:27:03;9.63;;;6.23;;
15645;SDS011;7922;43.622;1.476;2023-05-29T05:29:29;9.87;;;6.60;;
15645;SDS011;7922;43.622;1.476;2023-05-29T05:31:54;8.40;;;5.67;;
15645;SDS011;7922;43.622;1.476;2023-05-29T05:34:19;10.37;;;6.37;;
15645;SDS011;7922;43.622;1.476;2023-05-29T05:36:45;10.27;;;5.83;;
15645;SDS011;7922;43.622;1.476;2023-05-29T05:39:10;8.73;;;6.50;;
15645;SDS011;7922;43.622;1.476;2023-05-29T05:41:35;9.77;;;6.30;;
15645;SDS011;7922;43.622;1.476;2023-05-29T05:44:01;12.37;;;5.77;;
15645;SDS011;7922;43.622;1.476;2023-05-29T05:46:26;9.00;;;5.73;;
15645;SDS011;7922;43.622;1.476;2023-05-29T05:48:51;10.80;;;6.63;;
15645;SDS011;7922;43.622;1.476;2023-05-29T05:51:18;9.33;;;5.83;;
15645;SDS011;7922;43.622;1.476;2023-05-29T05:53:43;7.13;;;5.50;;
15645;SDS011;7922;43.622;1.476;2023-05-29T05:56:08;9.10;;;6.83;;
15645;SDS011;7922;43.622;1.476;2023-05-29T05:58:34;10.53;;;6.20;;
15645;SDS011;7922;43.622;1.476;2023-05-29T06:00:59;11.50;;;6.80;;
15645;SDS011;7922;43.622;1.476;2023-05-29T06:03:24;11.90;;;6.10;;
15645;SDS011;7922;43.622;1.476;2023-05-29T06:05:50;11.67;;;6.27;;
15645;SDS011;7922;43.622;1.476;2023-05-29T06:08:15;9.90;;;5.87;;
15645;SDS011;7922;43.622;1.476;2023-05-29T06:10:40;11.23;;;6.80;;
15645;SDS011;7922;43.622;1.476;2023-05-29T06:13:05;10.87;;;5.73;;
15645;SDS011;7922;43.622;1.476;2023-05-29T06:15:31;10.60;;;6.63;;
15645;SDS011;7922;43.622;1.476;2023-05-29T06:17:56;10.47;;;6.63;;
15645;SDS011;7922;43.622;1.476;2023-05-29T06:20:21;9.00;;;5.60;;
15645;SDS011;7922;43.622;1.476;2023-05-29T06:22:47;10.10;;;6.00;;
15645;SDS011;7922;43.622;1.476;2023-05-29T06:25:12;13.87;;;6.43;;
15645;SDS011;7922;43.622;1.476;2023-05-29T06:27:37;11.70;;;6.07;;
15645;SDS011;7922;43.622;1.476;2023-05-29T06:30:03;9.90;;;5.23;;
15645;SDS011;7922;43.622;1.476;2023-05-29T06:32:28;11.43;;;5.63;;
15645;SDS011;7922;43.622;1.476;2023-05-29T06:34:54;8.83;;;5.77;;
15645;SDS011;7922;43.622;1.476;2023-05-29T06:37:19;10.53;;;5.33;;
15645;SDS011;7922;43.622;1.476;2023-05-29T06:39:44;10.30;;;6.00;;
15645;SDS011;7922;43.622;1.476;2023-05-29T06:42:10;8.63;;;5.10;;
15645;SDS011;7922;43.622;1.476;2023-05-29T06:44:35;7.30;;;5.27;;
15645;SDS011;7922;43.622;1.476;2023-05-29T06:47:00;10.13;;;5.67;;
15645;SDS011;7922;43.622;1.476;2023-05-29T06:49:26;8.23;;;5.20;;
15645;SDS011;7922;43.622;1.476;2023-05-29T06:51:51;12.10;;;5.93;;
15645;SDS011;7922;43.622;1.476;2023-05-29T06:54:16;9.83;;;5.87;;
15645;SDS011;7922;43.622;1.476;2023-05-29T06:56:42;9.13;;;5.77;;
15645;SDS011;7922;43.622;1.476;2023-05-29T06:59:07;9.77;;;5.40;;
15645;SDS011;7922;43.622;1.476;2023-05-29T07:01:33;8.40;;;5.40;;
15645;SDS011;7922;43.622;1.476;2023-05-29T07:03:58;11.30;;;5.23;;
15645;SDS011;7922;43.622;1.476;2023-05-29T07:06:23;8.40;;;5.50;;
15645;SDS011;7922;43.622;1.476;2023-05-29T07:08:48;6.93;;;5.30;;
15645;SDS011;7922;43.622;1.476;2023-05-29T07:11:14;8.70;;;5.40;;
15645;SDS011;7922;43.622;1.476;2023-05-29T07:13:39;11.73;;;5.40;;
15645;SDS011;7922;43.622;1.476;2023-05-29T07:16:04;7.50;;;4.87;;
15645;SDS011;7922;43.622;1.476;2023-05-29T07:18:30;8.87;;;5.77;;
15645;SDS011;7922;43.622;1.476;2023-05-29T07:20:56;13.77;;;5.27;;
15645;SDS011;7922;43.622;1.476;2023-05-29T07:23:21;8.03;;;5.47;;
15645;SDS011;7922;43.622;1.476;2023-05-29T07:25:47;8.03;;;4.90;;
15645;SDS011;7922;43.622;1.476;2023-05-29T07:28:12;8.97;;;5.20;;
15645;SDS011;7922;43.622;1.476;2023-05-29T07:30:37;8.10;;;4.77;;
15645;SDS011;7922;43.622;1.476;2023-05-29T07:33:03;7.73;;;5.30;;
15645;SDS011;7922;43.622;1.476;2023-05-29T07:35:28;8.53;;;5.40;;
15645;SDS011;7922;43.622;1.476;2023-05-29T07:37:53;10.47;;;5.77;;
15645;SDS011;7922;43.622;1.476;2023-05-29T07:40:18;11.83;;;5.43;;
15645;SDS011;7922;43.622;1.476;2023-05-29T07:42:44;9.30;;;5.27;;
15645;SDS011;7922;43.622;1.476;2023-05-29T07:45:09;8.37;;;5.00;;
15645;SDS011;7922;43.622;1.476;2023-05-29T07:47:34;7.33;;;4.47;;
15645;SDS011;7922;43.622;1.476;2023-05-29T07:49:59;7.70;;;5.33;;
15645;SDS011;7922;43.622;1.476;2023-05-29T07:52:25;9.67;;;4.83;;
15645;SDS011;7922;43.622;1.476;2023-05-29T07:54:50;6.37;;;4.63;;
15645;SDS011;7922;43.622;1.476;2023-05-29T07:57:15;7.37;;;4.90;;
15645;SDS011;7922;43.622;1.476;2023-05-29T07:59:41;9.90;;;5.33;;
15645;SDS011;7922;43.622;1.476;2023-05-29T08:02:06;9.97;;;5.60;;
15645;SDS011;7922;43.622;1.476;2023-05-29T08:04:32;7.40;;;5.23;;
15645;SDS011;7922;43.622;1.476;2023-05-29T08:06:58;11.13;;;6.20;;
15645;SDS011;7922;43.622;1.476;2023-05-29T08:09:24;7.63;;;5.43;;
15645;SDS011;7922;43.622;1.476;2023-05-29T08:11:49;6.97;;;4.80;;
15645;SDS011;7922;43.622;1.476;2023-05-29T08:14:15;7.50;;;4.90;;
15645;SDS011;7922;43.622;1.476;2023-05-29T08:16:40;7.70;;;5.60;;
15645;SDS011;7922;43.622;1.476;2023-05-29T08:19:05;9.27;;;5.00;;
15645;SDS011;7922;43.622;1.476;2023-05-29T08:21:31;8.33;;;4.63;;
15645;SDS011;7922;43.622;1.476;2023-05-29T08:23:56;7.73;;;5.00;;
15645;SDS011;7922;43.622;1.476;2023-05-29T08:26:22;8.93;;;4.63;;
15645;SDS011;7922;43.622;1.476;2023-05-29T08:28:47;8.13;;;4.97;;
15645;SDS011;7922;43.622;1.476;2023-05-29T08:31:12;8.57;;;4.63;;
15645;SDS011;7922;43.622;1.476;2023-05-29T08:33:37;8.73;;;4.70;;
15645;SDS011;7922;43.622;1.476;2023-05-29T08:36:03;7.10;;;4.90;;
15645;SDS011;7922;43.622;1.476;2023-05-29T08:38:28;7.40;;;5.03;;
15645;SDS011;7922;43.622;1.476;2023-05-29T08:40:54;6.23;;;4.73;;
15645;SDS011;7922;43.622;1.476;2023-05-29T08:43:21;8.73;;;5.20;;
15645;SDS011;7922;43.622;1.476;2023-05-29T08:45:48;6.93;;;5.27;;
15645;SDS011;7922;43.622;1.476;2023-05-29T08:48:19;5.23;;;4.30;;
15645;SDS011;7922;43.622;1.476;2023-05-29T08:50:48;8.10;;;4.63;;
15645;SDS011;7922;43.622;1.476;2023-05-29T08:53:14;7.83;;;5.10;;
15645;SDS011;7922;43.622;1.476;2023-05-29T08:55:40;8.13;;;4.77;;
15645;SDS011;7922;43.622;1.476;2023-05-29T08:58:05;6.33;;;4.80;;
15645;SDS011;7922;43.622;1.476;2023-05-29T09:00:31;7.37;;;4.43;;
15645;SDS011;7922;43.622;1.476;2023-05-29T09:02:57;7.63;;;4.53;;
15645;SDS011;7922;43.622;1.476;2023-05-29T09:05:22;7.60;;;5.10;;
15645;SDS011;7922;43.622;1.476;2023-05-29T09:07:47;8.20;;;4.87;;
15645;SDS011;7922;43.622;1.476;2023-05-29T09:10:13;9.10;;;5.27;;
15645;SDS011;7922;43.622;1.476;2023-05-29T09:12:38;9.23;;;4.70;;
15645;SDS011;7922;43.622;1.476;2023-05-29T09:15:07;6.07;;;4.80;;
15645;SDS011;7922;43.622;1.476;2023-05-29T09:17:41;7.00;;;4.90;;
15645;SDS011;7922;43.622;1.476;2023-05-29T09:20:14;8.33;;;5.10;;
15645;SDS011;7922;43.622;1.476;2023-05-29T09:22:42;7.43;;;5.13;;
15645;SDS011;7922;43.622;1.476;2023-05-29T09:25:07;6.70;;;4.73;;
15645;SDS011;7922;43.622;1.476;2023-05-29T09:27:34;6.57;;;5.27;;
15645;SDS011;7922;43.622;1.476;2023-05-29T09:30:04;9.37;;;4.90;;
15645;SDS011;7922;43.622;1.476;2023-05-29T09:32:31;9.30;;;5.43;;
15645;SDS011;7922;43.622;1.476;2023-05-29T09:34:59;8.43;;;5.23;;
15645;SDS011;7922;43.622;1.476;2023-05-29T09:37:25;7.83;;;5.10;;
15645;SDS011;7922;43.622;1.476;2023-05-29T09:39:50;7.90;;;5.33;;
15645;SDS011;7922;43.622;1.476;2023-05-29T09:42:15;6.90;;;4.60;;
15645;SDS011;7922;43.622;1.476;2023-05-29T09:44:42;5.27;;;4.63;;
15645;SDS011;7922;43.622;1.476;2023-05-29T09:47:14;6.30;;;4.40;;
15645;SDS011;7922;43.622;1.476;2023-05-29T09:49:41;8.50;;;4.97;;
15645;SDS011;7922;43.622;1.476;2023-05-29T09:52:06;9.23;;;5.63;;
15645;SDS011;7922;43.622;1.476;2023-05-29T09:54:32;7.83;;;5.20;;
15645;SDS011;7922;43.622;1.476;2023-05-29T09:57:00;6.37;;;4.67;;
15645;SDS011;7922;43.622;1.476;2023-05-29T09:59:26;6.33;;;4.70;;
15645;SDS011;7922;43.622;1.476;2023-05-29T10:02:00;5.97;;;4.87;;
15645;SDS011;7922;43.622;1.476;2023-05-29T10:04:27;7.60;;;5.13;;
15645;SDS011;7922;43.622;1.476;2023-05-29T10:06:52;8.20;;;5.60;;
15645;SDS011;7922;43.622;1.476;2023-05-29T10:09:20;6.23;;;4.87;;
15645;SDS011;7922;43.622;1.476;2023-05-29T10:11:48;8.20;;;5.33;;
15645;SDS011;7922;43.622;1.476;2023-05-29T10:14:17;9.13;;;5.13;;
15645;SDS011;7922;43.622;1.476;2023-05-29T10:16:43;8.33;;;5.13;;
15645;SDS011;7922;43.622;1.476;2023-05-29T10:19:12;5.60;;;4.50;;
15645;SDS011;7922;43.622;1.476;2023-05-29T10:21:41;7.67;;;4.63;;
15645;SDS011;7922;43.622;1.476;2023-05-29T10:24:07;8.40;;;4.40;;
15645;SDS011;7922;43.622;1.476;2023-05-29T10:26:37;8.23;;;4.83;;
15645;SDS011;7922;43.622;1.476;2023-05-29T10:37:50;7.30;;;5.13;;
15645;SDS011;7922;43.622;1.476;2023-05-29T10:40:23;6.07;;;4.57;;
15645;SDS011;7922;43.622;1.476;2023-05-29T10:42:50;5.83;;;4.27;;
15645;SDS011;7922;43.622;1.476;2023-05-29T10:48:35;6.53;;;4.33;;
15645;SDS011;7922;43.622;1.476;2023-05-29T10:50:42;6.93;;;4.23;;
15645;SDS011;7922;43.622;1.476;2023-05-29T10:53:09;6.67;;;4.40;;
15645;SDS011;7922;43.622;1.476;2023-05-29T10:55:38;9.90;;;5.17;;
15645;SDS011;7922;43.622;1.476;2023-05-29T10:58:12;7.07;;;4.37;;
15645;SDS011;7922;43.622;1.476;2023-05-29T11:00:40;11.73;;;4.80;;
15645;SDS011;7922;43.622;1.476;2023-05-29T11:03:06;8.40;;;4.30;;
15645;SDS011;7922;43.622;1.476;2023-05-29T11:05:32;7.40;;;4.73;;
15645;SDS011;7922;43.622;1.476;2023-05-29T11:07:58;8.97;;;4.90;;
15645;SDS011;7922;43.622;1.476;2023-05-29T11:10:41;7.80;;;3.97;;
15645;SDS011;7922;43.622;1.476;2023-05-29T11:13:07;8.77;;;4.57;;
15645;SDS011;7922;43.622;1.476;2023-05-29T11:15:33;6.53;;;4.60;;
15645;SDS011;7922;43.622;1.476;2023-05-29T11:18:08;7.50;;;4.75;;
15645;SDS011;7922;43.622;1.476;2023-05-29T11:23:06;9.30;;;5.13;;
15645;SDS011;7922;43.622;1.476;2023-05-29T11:25:33;7.00;;;4.77;;
15645;SDS011;7922;43.622;1.476;2023-05-29T11:28:02;6.07;;;4.70;;
15645;SDS011;7922;43.622;1.476;2023-05-29T11:30:29;11.05;;;5.10;;
15645;SDS011;7922;43.622;1.476;2023-05-29T11:32:54;10.10;;;4.50;;
15645;SDS011;7922;43.622;1.476;2023-05-29T11:35:26;7.53;;;4.60;;
15645;SDS011;7922;43.622;1.476;2023-05-29T11:37:54;9.50;;;4.53;;
15645;SDS011;7922;43.622;1.476;2023-05-29T11:40:21;7.20;;;4.72;;
15645;SDS011;7922;43.622;1.476;2023-05-29T11:42:46;7.80;;;4.50;;
15645;SDS011;7922;43.622;1.476;2023-05-29T11:45:12;7.05;;;4.90;;
15645;SDS011;7922;43.622;1.476;2023-05-29T11:50:19;7.75;;;4.57;;
15645;SDS011;7922;43.622;1.476;2023-05-29T11:52:56;6.60;;;4.65;;
15645;SDS011;7922;43.622;1.476;2023-05-29T11:55:22;9.38;;;4.90;;
15645;SDS011;7922;43.622;1.476;2023-05-29T11:57:49;6.45;;;4.50;;
15645;SDS011;7922;43.622;1.476;2023-05-29T12:00:16;10.00;;;4.30;;
15645;SDS011;7922;43.622;1.476;2023-05-29T12:02:42;7.68;;;4.18;;
15645;SDS011;7922;43.622;1.476;2023-05-29T12:05:08;7.43;;;4.65;;
15645;SDS011;7922;43.622;1.476;2023-05-29T12:07:34;7.35;;;4.30;;
15645;SDS011;7922;43.622;1.476;2023-05-29T12:10:12;9.25;;;5.10;;
15645;SDS011;7922;43.622;1.476;2023-05-29T12:12:39;9.32;;;4.97;;
15645;SDS011;7922;43.622;1.476;2023-05-29T12:15:04;7.40;;;4.68;;
15645;SDS011;7922;43.622;1.476;2023-05-29T12:17:30;9.25;;;4.35;;
15645;SDS011;7922;43.622;1.476;2023-05-29T12:19:56;5.32;;;4.38;;
15645;SDS011;7922;43.622;1.476;2023-05-29T12:22:40;10.73;;;4.40;;
15645;SDS011;7922;43.622;1.476;2023-05-29T12:25:07;9.07;;;4.88;;
15645;SDS011;7922;43.622;1.476;2023-05-29T12:27:35;8.63;;;4.57;;
15645;SDS011;7922;43.622;1.476;2023-05-29T12:30:03;7.80;;;4.30;;
15645;SDS011;7922;43.622;1.476;2023-05-29T12:32:35;6.95;;;4.97;;
15645;SDS011;7922;43.622;1.476;2023-05-29T12:35:09;7.93;;;4.95;;
15645;SDS011;7922;43.622;1.476;2023-05-29T12:37:44;7.30;;;4.13;;
15645;SDS011;7922;43.622;1.476;2023-05-29T12:40:18;6.03;;;4.20;;
15645;SDS011;7922;43.622;1.476;2023-05-29T12:42:48;6.07;;;4.10;;
15645;SDS011;7922;43.622;1.476;2023-05-29T12:45:18;8.88;;;4.40;;
15645;SDS011;7922;43.622;1.476;2023-05-29T12:47:44;7.43;;;3.90;;
15645;SDS011;7922;43.622;1.476;2023-05-29T12:52:45;7.40;;;4.30;;
15645;SDS011;7922;43.622;1.476;2023-05-29T12:55:10;9.00;;;4.20;;
15645;SDS011;7922;43.622;1.476;2023-05-29T12:57:36;8.07;;;4.68;;
15645;SDS011;7922;43.622;1.476;2023-05-29T13:00:01;7.90;;;5.13;;
15645;SDS011;7922;43.622;1.476;2023-05-29T13:02:26;10.02;;;4.63;;
15645;SDS011;7922;43.622;1.476;2023-05-29T13:04:51;6.60;;;4.38;;
15645;SDS011;7922;43.622;1.476;2023-05-29T13:07:17;7.63;;;4.50;;
15645;SDS011;7922;43.622;1.476;2023-05-29T13:09:42;9.25;;;4.10;;
15645;SDS011;7922;43.622;1.476;2023-05-29T13:12:07;8.90;;;4.55;;
15645;SDS011;7922;43.622;1.476;2023-05-29T13:14:33;7.85;;;4.25;;
15645;SDS011;7922;43.622;1.476;2023-05-29T13:16:58;9.15;;;4.70;;
15645;SDS011;7922;43.622;1.476;2023-05-29T13:19:23;8.30;;;4.18;;
15645;SDS011;7922;43.622;1.476;2023-05-29T13:21:49;8.82;;;4.97;;
15645;SDS011;7922;43.622;1.476;2023-05-29T13:24:14;10.70;;;4.53;;
15645;SDS011;7922;43.622;1.476;2023-05-29T13:26:39;11.75;;;4.68;;
15645;SDS011;7922;43.622;1.476;2023-05-29T13:29:04;8.05;;;4.38;;
15645;SDS011;7922;43.622;1.476;2023-05-29T13:31:30;5.53;;;4.35;;
15645;SDS011;7922;43.622;1.476;2023-05-29T13:33:55;7.43;;;3.80;;
15645;SDS011;7922;43.622;1.476;2023-05-29T13:36:20;5.15;;;3.88;;
15645;SDS011;7922;43.622;1.476;2023-05-29T13:38:46;7.93;;;4.10;;
15645;SDS011;7922;43.622;1.476;2023-05-29T13:41:11;8.73;;;4.50;;
15645;SDS011;7922;43.622;1.476;2023-05-29T13:43:36;8.73;;;4.28;;
15645;SDS011;7922;43.622;1.476;2023-05-29T13:46:01;5.72;;;4.18;;
15645;SDS011;7922;43.622;1.476;2023-05-29T13:48:27;5.47;;;4.45;;
15645;SDS011;7922;43.622;1.476;2023-05-29T13:50:52;7.45;;;4.53;;
15645;SDS011;7922;43.622;1.476;2023-05-29T13:53:17;8.70;;;4.60;;
15645;SDS011;7922;43.622;1.476;2023-05-29T13:55:43;6.93;;;4.30;;
15645;SDS011;7922;43.622;1.476;2023-05-29T13:58:08;7.22;;;4.78;;
15645;SDS011;7922;43.622;1.476;2023-05-29T14:00:33;7.40;;;3.95;;
15645;SDS011;7922;43.622;1.476;2023-05-29T14:02:58;7.05;;;4.28;;
15645;SDS011;7922;43.622;1.476;2023-05-29T14:05:24;7.47;;;4.25;;
15645;SDS011;7922;43.622;1.476;2023-05-29T14:07:49;6.03;;;3.85;;
15645;SDS011;7922;43.622;1.476;2023-05-29T14:10:14;5.57;;;4.00;;
15645;SDS011;7922;43.622;1.476;2023-05-29T14:12:39;5.90;;;4.10;;
15645;SDS011;7922;43.622;1.476;2023-05-29T14:15:05;9.88;;;3.90;;
15645;SDS011;7922;43.622;1.476;2023-05-29T14:17:31;7.28;;;3.97;;
15645;SDS011;7922;43.622;1.476;2023-05-29T14:19:56;6.68;;;4.20;;
15645;SDS011;7922;43.622;1.476;2023-05-29T14:22:21;9.43;;;4.20;;
15645;SDS011;7922;43.622;1.476;2023-05-29T14:24:47;7.53;;;4.05;;
15645;SDS011;7922;43.622;1.476;2023-05-29T14:27:12;6.35;;;4.03;;
15645;SDS011;7922;43.622;1.476;2023-05-29T14:29:37;8.65;;;4.20;;
15645;SDS011;7922;43.622;1.476;2023-05-29T14:32:02;7.38;;;3.97;;
15645;SDS011;7922;43.622;1.476;2023-05-29T14:34:28;7.70;;;3.80;;
15645;SDS011;7922;43.622;1.476;2023-05-29T14:36:53;6.45;;;4.07;;
15645;SDS011;7922;43.622;1.476;2023-05-29T14:39:19;10.32;;;4.25;;
15645;SDS011;7922;43.622;1.476;2023-05-29T14:41:44;10.02;;;4.53;;
15645;SDS011;7922;43.622;1.476;2023-05-29T14:44:09;7.75;;;4.00;;
15645;SDS011;7922;43.622;1.476;2023-05-29T14:46:34;7.20;;;4.05;;
15645;SDS011;7922;43.622;1.476;2023-05-29T14:49:00;9.30;;;3.95;;
15645;SDS011;7922;43.622;1.476;2023-05-29T14:51:26;6.43;;;4.10;;
15645;SDS011;7922;43.622;1.476;2023-05-29T14:53:51;9.60;;;4.05;;
15645;SDS011;7922;43.622;1.476;2023-05-29T14:56:17;6.85;;;3.80;;
15645;SDS011;7922;43.622;1.476;2023-05-29T14:58:42;6.97;;;4.47;;
15645;SDS011;7922;43.622;1.476;2023-05-29T15:01:07;7.32;;;4.05;;
15645;SDS011;7922;43.622;1.476;2023-05-29T15:03:33;6.22;;;4.07;;
15645;SDS011;7922;43.622;1.476;2023-05-29T15:05:58;9.63;;;4.15;;
15645;SDS011;7922;43.622;1.476;2023-05-29T15:08:23;9.00;;;3.80;;
15645;SDS011;7922;43.622;1.476;2023-05-29T15:10:48;7.03;;;4.13;;
15645;SDS011;7922;43.622;1.476;2023-05-29T15:13:14;7.38;;;3.75;;
15645;SDS011;7922;43.622;1.476;2023-05-29T15:15:39;6.05;;;3.70;;
15645;SDS011;7922;43.622;1.476;2023-05-29T15:18:04;8.45;;;4.00;;